createdAt,value
2022-08-16T04:00:41.563Z,57.46
2022-08-16T04:03:47.095Z,54.39
2022-08-16T04:06:52.578Z,53.89
2022-08-16T04:09:59.780Z,53.40
2022-08-16T04:14:00.437Z,52.66
2022-08-16T04:16:46.486Z,52.20
2022-08-16T04:19:58.214Z,52.15
2022-08-16T04:23:02.969Z,51.48
2022-08-16T04:26:07.125Z,51.24
2022-08-16T04:29:24.945Z,51.59
2022-08-16T04:32:27.981Z,51.92
2022-08-16T04:35:34.021Z,51.29
2022-08-16T04:38:37.673Z,51.35
2022-08-16T04:41:41.140Z,51.77
2022-08-16T04:44:53.485Z,51.85
2022-08-16T04:48:00.118Z,51.70
2022-08-16T04:51:07.875Z,51.39
2022-08-16T04:54:15.393Z,51.02
2022-08-16T04:57:22.450Z,50.72
2022-08-16T05:00:36.148Z,50.60
2022-08-16T05:03:41.750Z,50.46
2022-08-16T05:07:02.957Z,50.50
2022-08-16T05:10:19.844Z,50.41
2022-08-16T05:13:40.600Z,50.36
2022-08-16T05:16:45.580Z,50.29
2022-08-16T05:19:57.666Z,50.59
2022-08-16T05:23:01.533Z,50.16
2022-08-16T05:26:04.977Z,52.20
2022-08-16T05:29:11.154Z,53.99
2022-08-16T05:32:32.816Z,56.21
2022-08-16T05:35:39.613Z,58.20
2022-08-16T05:38:47.022Z,60.16
2022-08-16T05:41:51.937Z,61.72
2022-08-16T05:44:55.202Z,63.32
2022-08-16T05:48:01.794Z,62.54
2022-08-16T05:51:10.392Z,63.01
2022-08-16T05:54:17.464Z,61.47
2022-08-16T05:57:27.850Z,61.79
2022-08-16T06:00:38.459Z,62.21
2022-08-16T06:03:41.315Z,60.78
2022-08-16T06:06:56.480Z,60.75
2022-08-16T06:10:01.457Z,60.40
2022-08-16T06:13:04.819Z,58.65
2022-08-16T06:16:07.653Z,58.25
2022-08-16T06:19:12.403Z,56.12
2022-08-16T06:22:19.459Z,55.18
2022-08-16T06:25:40.451Z,53.16
2022-08-16T06:28:43.557Z,53.32
2022-08-16T06:31:50.435Z,54.24
2022-08-16T06:34:55.666Z,53.85
2022-08-16T06:38:00.841Z,50.51
2022-08-16T06:41:13.572Z,49.36
2022-08-16T06:44:21.024Z,49.81
2022-08-16T06:47:29.007Z,49.58
2022-08-16T06:50:50.170Z,49.87
2022-08-16T06:53:53.033Z,49.34
2022-08-16T06:56:55.758Z,48.92
2022-08-16T06:59:58.740Z,48.43
2022-08-16T07:03:28.135Z,47.75
2022-08-16T07:06:31.498Z,47.38
2022-08-16T07:09:34.067Z,47.05
2022-08-16T07:12:47.401Z,46.41
2022-08-16T07:16:00.753Z,46.23
2022-08-16T07:19:05.077Z,44.74
2022-08-16T07:22:38.334Z,45.26
2022-08-16T07:25:31.313Z,46.45
2022-08-16T07:28:35.555Z,45.70
2022-08-16T07:31:39.564Z,44.83
2022-08-16T07:34:48.623Z,45.47
2022-08-16T07:37:53.319Z,44.96
2022-08-16T07:41:01.191Z,45.18
2022-08-16T07:44:16.302Z,45.22
2022-08-16T07:47:19.846Z,43.96
2022-08-16T07:50:55.837Z,44.22
2022-08-16T07:54:04.150Z,44.32
2022-08-16T07:57:14.078Z,43.14
2022-08-16T08:00:25.227Z,44.11
2022-08-16T08:03:35.939Z,43.78
2022-08-16T08:06:42.574Z,44.83
2022-08-16T08:09:46.181Z,45.27
2022-08-16T08:12:49.517Z,46.02
2022-08-16T08:15:53.463Z,43.46
2022-08-16T08:19:01.027Z,41.90
2022-08-16T08:22:06.482Z,40.99
2022-08-16T08:25:09.430Z,41.94
2022-08-16T08:28:17.646Z,41.04
2022-08-16T08:31:20.305Z,41.40
2022-08-16T08:34:23.727Z,38.84
2022-08-16T08:37:26.999Z,36.43
2022-08-16T08:40:56.900Z,37.98
2022-08-16T08:43:59.882Z,38.94
2022-08-16T08:47:09.245Z,37.76
2022-08-16T08:50:31.563Z,38.23
2022-08-16T08:53:36.483Z,36.26
2022-08-16T08:56:45.377Z,37.60
2022-08-16T08:59:52.900Z,37.43
2022-08-16T09:02:57.366Z,37.67
2022-08-16T09:06:01.575Z,36.70
2022-08-16T09:09:06.574Z,37.73
2022-08-16T09:12:31.252Z,35.79
2022-08-16T09:15:38.649Z,36.17
2022-08-16T09:18:41.606Z,35.46
2022-08-16T09:21:44.549Z,34.42
2022-08-16T09:25:11.010Z,33.91
2022-08-16T09:29:15.375Z,33.99
2022-08-16T09:31:43.553Z,32.94
2022-08-16T09:34:47.345Z,33.34
2022-08-16T09:38:00.951Z,32.19
2022-08-16T09:42:56.594Z,30.88
2022-08-16T09:45:57.781Z,30.88
2022-08-16T09:49:03.832Z,30.53
2022-08-16T09:52:07.289Z,31.96
2022-08-16T09:55:12.497Z,33.17
2022-08-16T09:58:41.893Z,31.21
2022-08-16T10:01:43.606Z,32.25
2022-08-16T10:04:54.292Z,29.29
2022-08-16T10:07:57.357Z,28.78
2022-08-16T10:11:23.911Z,28.72
2022-08-16T10:14:32.965Z,27.70
2022-08-16T10:17:38.659Z,27.54
2022-08-16T10:20:45.811Z,27.53
2022-08-16T10:23:53.609Z,28.00
2022-08-16T10:27:17.825Z,27.57
2022-08-16T10:30:26.249Z,26.12
2022-08-16T10:33:34.000Z,30.95
2022-08-16T10:36:39.188Z,25.09
2022-08-16T10:39:42.506Z,26.16
2022-08-16T10:42:45.467Z,26.02
2022-08-16T10:46:00.436Z,26.04
2022-08-16T10:49:05.096Z,25.32
2022-08-16T10:52:18.619Z,24.46
2022-08-16T10:55:40.768Z,24.28
2022-08-16T10:58:44.555Z,24.37
2022-08-16T11:05:16.888Z,25.11
2022-08-16T11:08:23.571Z,24.05
2022-08-16T11:12:14.024Z,25.05
2022-08-16T11:15:17.966Z,24.67
2022-08-16T11:19:04.911Z,24.29
2022-08-16T11:25:59.613Z,25.91
2022-08-16T11:31:54.550Z,28.25
2022-08-16T11:35:15.786Z,28.97
2022-08-16T11:38:46.857Z,31.50
2022-08-16T11:41:45.170Z,34.90
2022-08-16T11:44:56.879Z,35.54
2022-08-16T11:48:00.363Z,34.98
2022-08-16T11:51:04.698Z,34.42
2022-08-16T11:54:09.038Z,33.43
2022-08-16T11:57:25.322Z,34.45
2022-08-16T12:00:33.761Z,36.48
2022-08-16T12:03:53.504Z,38.86
2022-08-16T12:06:55.928Z,43.46
2022-08-16T12:10:00.451Z,43.60
2022-08-16T12:13:04.019Z,44.58
2022-08-16T12:16:08.222Z,41.82
2022-08-16T12:19:13.887Z,41.44
2022-08-16T12:22:18.953Z,42.46
2022-08-16T12:25:25.555Z,43.43
2022-08-16T12:28:54.945Z,40.90
2022-08-16T12:32:01.262Z,39.75
2022-08-16T12:35:19.245Z,35.83
2022-08-16T12:38:41.696Z,33.34
2022-08-16T12:41:46.656Z,33.61
2022-08-16T12:44:50.396Z,31.43
2022-08-16T12:48:32.643Z,28.31
2022-08-16T12:51:57.951Z,28.64
2022-08-16T12:55:04.215Z,27.52
2022-08-16T12:58:13.773Z,28.48
2022-08-16T13:01:31.825Z,29.66
2022-08-16T13:04:35.454Z,29.22
2022-08-16T13:07:45.260Z,30.76
2022-08-16T13:10:56.865Z,31.74
2022-08-16T13:13:59.483Z,32.94
2022-08-16T13:17:06.704Z,33.39
2022-08-16T13:20:14.739Z,33.01
2022-08-16T13:23:18.693Z,31.81
2022-08-16T13:26:22.655Z,30.36
2022-08-16T13:29:26.019Z,29.71
2022-08-16T13:32:42.949Z,31.86
2022-08-16T13:35:56.339Z,30.01
2022-08-16T13:39:03.528Z,28.37
2022-08-16T13:42:11.860Z,28.03
2022-08-16T13:45:16.218Z,27.53
2022-08-16T13:48:21.732Z,27.79
2022-08-16T13:51:29.266Z,28.03
2022-08-16T13:54:32.969Z,27.59
2022-08-16T13:57:53.647Z,27.35
2022-08-16T14:01:00.665Z,27.48
2022-08-16T14:04:05.084Z,27.79
2022-08-16T14:07:11.467Z,27.16
2022-08-16T14:10:15.394Z,27.68
2022-08-16T14:13:21.094Z,26.94
2022-08-16T14:16:33.530Z,27.22
2022-08-16T14:19:36.624Z,26.92
2022-08-16T14:22:42.553Z,27.38
2022-08-16T14:25:45.984Z,26.79
2022-08-16T14:29:01.241Z,26.94
2022-08-16T14:32:07.175Z,26.39
2022-08-16T14:35:13.795Z,26.59
2022-08-16T14:38:18.531Z,25.40
2022-08-16T14:41:22.207Z,25.58
2022-08-16T14:44:26.185Z,25.58
2022-08-16T14:47:34.095Z,25.50
2022-08-16T14:50:42.006Z,25.49
2022-08-16T14:53:45.471Z,25.26
2022-08-16T14:56:55.039Z,26.09
2022-08-16T15:00:04.739Z,28.05
2022-08-16T15:03:10.744Z,28.95
2022-08-16T15:06:14.543Z,30.96
2022-08-16T15:09:18.601Z,31.72
2022-08-16T15:12:26.584Z,31.56
